Terminal Aerodrome Forecast
Issued by NWS Goodland, KS

Home | Current Version | Previous Version | Text Only | Print | Product List | Glossary On
Versions: 1 2 3 4 5 6 7 8 9 10 11 12
000
FTUS43 KGLD 211120
TAFGLD
TAF
KGLD 211120Z 2112/2212 30020G30KT P6SM BKN090
     FM211400 34015G23KT P6SM SCT050 SCT090
     FM211800 02017G26KT P6SM BKN040
     FM212100 36011KT P6SM SCT040
     FM220000 VRB05KT P6SM SCT250
     FM220500 21010KT P6SM SCT250=

USA.gov is the U.S. government's official web portal to all federal, state and local government web resources and services.